sensor_id;sensor_type;location;lat;lon;timestamp;temperature;humidity
11107;DHT22;5607;48.302;14.294;2024-01-16T00:00:20;1.70;99.90
11107;DHT22;5607;48.302;14.294;2024-01-16T00:03:06;1.80;99.90
11107;DHT22;5607;48.302;14.294;2024-01-16T00:05:53;1.70;99.90
11107;DHT22;5607;48.302;14.294;2024-01-16T00:08:39;1.60;99.90
11107;DHT22;5607;48.302;14.294;2024-01-16T00:11:26;1.60;99.90
11107;DHT22;5607;48.302;14.294;2024-01-16T00:14:13;1.50;99.90
11107;DHT22;5607;48.302;14.294;2024-01-16T00:17:00;1.50;99.90
11107;DHT22;5607;48.302;14.294;2024-01-16T00:19:47;1.30;99.90
11107;DHT22;5607;48.302;14.294;2024-01-16T00:22:33;1.40;99.90
11107;DHT22;5607;48.302;14.294;2024-01-16T00:25:20;1.40;99.90
11107;DHT22;5607;48.302;14.294;2024-01-16T00:28:07;1.40;99.90
11107;DHT22;5607;48.302;14.294;2024-01-16T00:30:54;1.50;99.90
11107;DHT22;5607;48.302;14.294;2024-01-16T00:33:40;1.40;99.90
11107;DHT22;5607;48.302;14.294;2024-01-16T00:36:27;1.50;99.90
11107;DHT22;5607;48.302;14.294;2024-01-16T00:39:13;1.60;99.90
11107;DHT22;5607;48.302;14.294;2024-01-16T00:42:01;1.50;99.90
11107;DHT22;5607;48.302;14.294;2024-01-16T00:44:48;1.60;99.90
11107;DHT22;5607;48.302;14.294;2024-01-16T00:47:36;1.50;99.90
11107;DHT22;5607;48.302;14.294;2024-01-16T00:50:22;1.40;99.90
11107;DHT22;5607;48.302;14.294;2024-01-16T00:53:10;1.30;99.90
11107;DHT22;5607;48.302;14.294;2024-01-16T00:55:57;1.10;99.90
11107;DHT22;5607;48.302;14.294;2024-01-16T00:58:43;1.20;99.90
11107;DHT22;5607;48.302;14.294;2024-01-16T01:01:30;1.30;99.90
11107;DHT22;5607;48.302;14.294;2024-01-16T01:04:18;1.30;99.90
11107;DHT22;5607;48.302;14.294;2024-01-16T01:07:04;1.30;99.90
11107;DHT22;5607;48.302;14.294;2024-01-16T01:09:51;1.20;99.90
11107;DHT22;5607;48.302;14.294;2024-01-16T01:12:38;1.20;99.90
11107;DHT22;5607;48.302;14.294;2024-01-16T01:15:25;1.20;99.90
11107;DHT22;5607;48.302;14.294;2024-01-16T01:18:11;1.30;99.90
11107;DHT22;5607;48.302;14.294;2024-01-16T01:20:58;1.30;99.90
11107;DHT22;5607;48.302;14.294;2024-01-16T01:23:44;1.30;99.90
11107;DHT22;5607;48.302;14.294;2024-01-16T01:26:32;1.30;99.90
11107;DHT22;5607;48.302;14.294;2024-01-16T01:29:19;1.40;99.90
11107;DHT22;5607;48.302;14.294;2024-01-16T01:32:05;1.40;99.90
11107;DHT22;5607;48.302;14.294;2024-01-16T01:34:52;1.20;99.90
11107;DHT22;5607;48.302;14.294;2024-01-16T01:37:38;1.30;99.90
11107;DHT22;5607;48.302;14.294;2024-01-16T01:40:25;1.30;99.90
11107;DHT22;5607;48.302;14.294;2024-01-16T01:43:22;1.30;99.90
11107;DHT22;5607;48.302;14.294;2024-01-16T01:46:13;1.20;99.90
11107;DHT22;5607;48.302;14.294;2024-01-16T01:49:03;1.10;99.90
11107;DHT22;5607;48.302;14.294;2024-01-16T01:51:50;1.00;99.90
11107;DHT22;5607;48.302;14.294;2024-01-16T01:54:37;1.00;99.90
11107;DHT22;5607;48.302;14.294;2024-01-16T01:57:24;1.00;99.90
11107;DHT22;5607;48.302;14.294;2024-01-16T02:00:11;1.10;99.90
11107;DHT22;5607;48.302;14.294;2024-01-16T02:02:58;1.10;99.90
11107;DHT22;5607;48.302;14.294;2024-01-16T02:05:44;1.10;99.90
11107;DHT22;5607;48.302;14.294;2024-01-16T02:08:32;1.00;99.90
11107;DHT22;5607;48.302;14.294;2024-01-16T02:11:19;1.00;99.90
11107;DHT22;5607;48.302;14.294;2024-01-16T02:14:05;1.00;99.90
11107;DHT22;5607;48.302;14.294;2024-01-16T02:16:52;1.10;99.90
11107;DHT22;5607;48.302;14.294;2024-01-16T02:19:38;1.10;99.90
11107;DHT22;5607;48.302;14.294;2024-01-16T02:22:26;1.10;99.90
11107;DHT22;5607;48.302;14.294;2024-01-16T02:25:15;1.10;99.90
11107;DHT22;5607;48.302;14.294;2024-01-16T02:28:01;1.10;99.90
11107;DHT22;5607;48.302;14.294;2024-01-16T02:30:49;1.00;99.90
11107;DHT22;5607;48.302;14.294;2024-01-16T02:33:36;1.00;99.90
11107;DHT22;5607;48.302;14.294;2024-01-16T02:36:22;1.00;99.90
11107;DHT22;5607;48.302;14.294;2024-01-16T02:39:09;1.00;99.90
11107;DHT22;5607;48.302;14.294;2024-01-16T02:41:56;1.10;99.90
11107;DHT22;5607;48.302;14.294;2024-01-16T02:44:42;1.10;99.90
11107;DHT22;5607;48.302;14.294;2024-01-16T02:47:30;1.10;99.90
11107;DHT22;5607;48.302;14.294;2024-01-16T02:50:17;1.10;99.90
11107;DHT22;5607;48.302;14.294;2024-01-16T02:53:04;1.20;99.90
11107;DHT22;5607;48.302;14.294;2024-01-16T02:55:50;1.10;99.90
11107;DHT22;5607;48.302;14.294;2024-01-16T02:58:38;1.20;99.90
11107;DHT22;5607;48.302;14.294;2024-01-16T03:01:24;1.20;99.90
11107;DHT22;5607;48.302;14.294;2024-01-16T03:04:11;1.20;99.90
11107;DHT22;5607;48.302;14.294;2024-01-16T03:06:57;1.30;99.90
11107;DHT22;5607;48.302;14.294;2024-01-16T03:09:44;1.40;99.90
11107;DHT22;5607;48.302;14.294;2024-01-16T03:12:30;1.40;99.90
11107;DHT22;5607;48.302;14.294;2024-01-16T03:15:17;1.40;99.90
11107;DHT22;5607;48.302;14.294;2024-01-16T03:18:04;1.20;99.90
11107;DHT22;5607;48.302;14.294;2024-01-16T03:20:50;1.20;99.90
11107;DHT22;5607;48.302;14.294;2024-01-16T03:23:37;1.10;99.90
11107;DHT22;5607;48.302;14.294;2024-01-16T03:26:24;1.10;99.90
11107;DHT22;5607;48.302;14.294;2024-01-16T03:29:11;1.10;99.90
11107;DHT22;5607;48.302;14.294;2024-01-16T03:31:57;1.20;99.90
11107;DHT22;5607;48.302;14.294;2024-01-16T03:34:44;1.20;99.90
11107;DHT22;5607;48.302;14.294;2024-01-16T03:37:30;1.20;99.90
11107;DHT22;5607;48.302;14.294;2024-01-16T03:40:17;1.20;99.90
11107;DHT22;5607;48.302;14.294;2024-01-16T03:43:04;1.10;99.90
11107;DHT22;5607;48.302;14.294;2024-01-16T03:45:51;1.20;99.90
11107;DHT22;5607;48.302;14.294;2024-01-16T03:48:38;1.20;99.90
11107;DHT22;5607;48.302;14.294;2024-01-16T03:51:25;1.30;99.90
11107;DHT22;5607;48.302;14.294;2024-01-16T03:54:12;1.30;99.90
11107;DHT22;5607;48.302;14.294;2024-01-16T03:57:02;1.30;99.90
11107;DHT22;5607;48.302;14.294;2024-01-16T03:59:48;1.30;99.90
11107;DHT22;5607;48.302;14.294;2024-01-16T04:02:36;1.30;99.90
11107;DHT22;5607;48.302;14.294;2024-01-16T04:05:23;1.40;99.90
11107;DHT22;5607;48.302;14.294;2024-01-16T04:08:10;1.30;99.90
11107;DHT22;5607;48.302;14.294;2024-01-16T04:10:58;1.40;99.90
11107;DHT22;5607;48.302;14.294;2024-01-16T04:13:45;1.40;99.90
11107;DHT22;5607;48.302;14.294;2024-01-16T04:16:32;1.40;99.90
11107;DHT22;5607;48.302;14.294;2024-01-16T04:19:19;1.50;99.90
11107;DHT22;5607;48.302;14.294;2024-01-16T04:22:05;1.50;99.90
11107;DHT22;5607;48.302;14.294;2024-01-16T04:24:52;1.40;99.90
11107;DHT22;5607;48.302;14.294;2024-01-16T04:27:39;1.50;99.90
11107;DHT22;5607;48.302;14.294;2024-01-16T04:30:25;1.40;99.90
11107;DHT22;5607;48.302;14.294;2024-01-16T04:33:12;1.40;99.90
11107;DHT22;5607;48.302;14.294;2024-01-16T04:35:58;1.40;99.90
11107;DHT22;5607;48.302;14.294;2024-01-16T04:38:45;1.40;99.90
11107;DHT22;5607;48.302;14.294;2024-01-16T04:41:32;1.40;99.90
11107;DHT22;5607;48.302;14.294;2024-01-16T04:44:18;1.40;99.90
11107;DHT22;5607;48.302;14.294;2024-01-16T04:47:06;1.40;99.90
11107;DHT22;5607;48.302;14.294;2024-01-16T04:49:52;1.50;99.90
11107;DHT22;5607;48.302;14.294;2024-01-16T04:52:39;1.50;99.90
11107;DHT22;5607;48.302;14.294;2024-01-16T04:55:26;1.40;99.90
11107;DHT22;5607;48.302;14.294;2024-01-16T04:58:13;1.40;99.90
11107;DHT22;5607;48.302;14.294;2024-01-16T05:01:00;1.40;99.90
11107;DHT22;5607;48.302;14.294;2024-01-16T05:03:47;1.40;99.90
11107;DHT22;5607;48.302;14.294;2024-01-16T05:06:34;1.30;99.90
11107;DHT22;5607;48.302;14.294;2024-01-16T05:16:09;1.30;99.90
11107;DHT22;5607;48.302;14.294;2024-01-16T05:18:55;1.40;99.90
11107;DHT22;5607;48.302;14.294;2024-01-16T05:21:42;1.30;99.90
11107;DHT22;5607;48.302;14.294;2024-01-16T05:24:29;1.30;99.90
11107;DHT22;5607;48.302;14.294;2024-01-16T05:27:15;1.30;99.90
11107;DHT22;5607;48.302;14.294;2024-01-16T05:30:02;1.30;99.90
11107;DHT22;5607;48.302;14.294;2024-01-16T05:32:49;1.30;99.90
11107;DHT22;5607;48.302;14.294;2024-01-16T05:35:36;1.20;99.90
11107;DHT22;5607;48.302;14.294;2024-01-16T05:38:23;1.20;99.90
11107;DHT22;5607;48.302;14.294;2024-01-16T05:41:09;1.10;99.90
11107;DHT22;5607;48.302;14.294;2024-01-16T05:43:56;1.10;99.90
11107;DHT22;5607;48.302;14.294;2024-01-16T05:46:42;1.00;99.90
11107;DHT22;5607;48.302;14.294;2024-01-16T05:49:29;1.10;99.90
11107;DHT22;5607;48.302;14.294;2024-01-16T05:52:16;1.10;99.90
11107;DHT22;5607;48.302;14.294;2024-01-16T05:55:03;1.00;99.90
11107;DHT22;5607;48.302;14.294;2024-01-16T05:57:50;1.00;99.90
11107;DHT22;5607;48.302;14.294;2024-01-16T06:00:36;1.10;99.90
11107;DHT22;5607;48.302;14.294;2024-01-16T06:03:24;1.10;99.90
11107;DHT22;5607;48.302;14.294;2024-01-16T06:06:10;1.10;99.90
11107;DHT22;5607;48.302;14.294;2024-01-16T06:08:57;1.00;99.90
11107;DHT22;5607;48.302;14.294;2024-01-16T06:11:45;0.90;99.90
11107;DHT22;5607;48.302;14.294;2024-01-16T06:14:32;1.00;99.90
11107;DHT22;5607;48.302;14.294;2024-01-16T06:17:19;1.00;99.90
11107;DHT22;5607;48.302;14.294;2024-01-16T06:20:06;1.00;99.90
11107;DHT22;5607;48.302;14.294;2024-01-16T06:22:52;1.00;99.90
11107;DHT22;5607;48.302;14.294;2024-01-16T06:25:39;1.10;99.90
11107;DHT22;5607;48.302;14.294;2024-01-16T06:28:26;1.10;99.90
11107;DHT22;5607;48.302;14.294;2024-01-16T06:31:12;1.20;99.90
11107;DHT22;5607;48.302;14.294;2024-01-16T06:33:59;1.20;99.90
11107;DHT22;5607;48.302;14.294;2024-01-16T06:36:45;1.20;99.90
11107;DHT22;5607;48.302;14.294;2024-01-16T06:39:33;1.30;99.90
11107;DHT22;5607;48.302;14.294;2024-01-16T06:42:21;1.30;99.90
11107;DHT22;5607;48.302;14.294;2024-01-16T06:45:08;1.30;99.90
11107;DHT22;5607;48.302;14.294;2024-01-16T06:47:55;1.40;99.90
11107;DHT22;5607;48.302;14.294;2024-01-16T06:50:41;1.30;99.90
11107;DHT22;5607;48.302;14.294;2024-01-16T06:53:28;1.30;99.90
11107;DHT22;5607;48.302;14.294;2024-01-16T06:56:15;1.40;99.90
11107;DHT22;5607;48.302;14.294;2024-01-16T06:59:01;1.40;99.90
11107;DHT22;5607;48.302;14.294;2024-01-16T07:01:48;1.40;99.90
11107;DHT22;5607;48.302;14.294;2024-01-16T07:04:35;1.40;99.90
11107;DHT22;5607;48.302;14.294;2024-01-16T07:10:47;1.50;99.90
11107;DHT22;5607;48.302;14.294;2024-01-16T07:13:35;1.60;99.90
11107;DHT22;5607;48.302;14.294;2024-01-16T07:16:23;1.70;99.90
11107;DHT22;5607;48.302;14.294;2024-01-16T07:19:10;1.90;99.90
11107;DHT22;5607;48.302;14.294;2024-01-16T07:21:58;1.90;99.90
11107;DHT22;5607;48.302;14.294;2024-01-16T07:24:44;1.90;99.90
11107;DHT22;5607;48.302;14.294;2024-01-16T07:27:31;1.90;99.90
11107;DHT22;5607;48.302;14.294;2024-01-16T07:30:17;1.90;99.90
11107;DHT22;5607;48.302;14.294;2024-01-16T07:33:04;1.90;99.90
11107;DHT22;5607;48.302;14.294;2024-01-16T07:35:50;2.00;99.90
11107;DHT22;5607;48.302;14.294;2024-01-16T07:38:37;2.10;99.90
11107;DHT22;5607;48.302;14.294;2024-01-16T07:41:24;2.10;99.90
11107;DHT22;5607;48.302;14.294;2024-01-16T07:44:10;2.20;99.90
11107;DHT22;5607;48.302;14.294;2024-01-16T07:46:57;2.30;99.90
11107;DHT22;5607;48.302;14.294;2024-01-16T07:49:44;2.10;99.90
11107;DHT22;5607;48.302;14.294;2024-01-16T07:52:30;2.00;99.90
11107;DHT22;5607;48.302;14.294;2024-01-16T07:55:17;1.90;99.90
11107;DHT22;5607;48.302;14.294;2024-01-16T07:58:04;1.90;99.90
11107;DHT22;5607;48.302;14.294;2024-01-16T08:00:51;1.90;99.90
11107;DHT22;5607;48.302;14.294;2024-01-16T08:03:37;1.90;99.90
11107;DHT22;5607;48.302;14.294;2024-01-16T08:06:25;2.00;99.90
11107;DHT22;5607;48.302;14.294;2024-01-16T08:09:12;1.90;99.90
11107;DHT22;5607;48.302;14.294;2024-01-16T08:12:00;2.00;99.90
11107;DHT22;5607;48.302;14.294;2024-01-16T08:14:48;2.10;99.90
11107;DHT22;5607;48.302;14.294;2024-01-16T08:17:35;2.20;99.90
11107;DHT22;5607;48.302;14.294;2024-01-16T08:20:22;2.40;99.90
11107;DHT22;5607;48.302;14.294;2024-01-16T08:23:09;2.50;99.90
11107;DHT22;5607;48.302;14.294;2024-01-16T08:25:55;2.40;99.90
11107;DHT22;5607;48.302;14.294;2024-01-16T08:28:42;2.30;99.90
11107;DHT22;5607;48.302;14.294;2024-01-16T08:31:28;2.30;99.90
11107;DHT22;5607;48.302;14.294;2024-01-16T08:34:15;2.40;99.90
11107;DHT22;5607;48.302;14.294;2024-01-16T08:37:02;2.50;99.90
11107;DHT22;5607;48.302;14.294;2024-01-16T08:39:51;2.30;99.90
11107;DHT22;5607;48.302;14.294;2024-01-16T08:42:37;2.40;99.90
11107;DHT22;5607;48.302;14.294;2024-01-16T08:45:24;2.50;99.90
11107;DHT22;5607;48.302;14.294;2024-01-16T08:48:12;2.50;99.90
11107;DHT22;5607;48.302;14.294;2024-01-16T08:51:00;2.40;99.90
11107;DHT22;5607;48.302;14.294;2024-01-16T08:53:47;2.70;99.90
11107;DHT22;5607;48.302;14.294;2024-01-16T08:56:34;3.00;99.90
11107;DHT22;5607;48.302;14.294;2024-01-16T08:59:20;3.20;99.90
11107;DHT22;5607;48.302;14.294;2024-01-16T09:02:07;3.10;99.90
11107;DHT22;5607;48.302;14.294;2024-01-16T09:04:54;2.80;99.90
11107;DHT22;5607;48.302;14.294;2024-01-16T09:07:41;2.70;99.90
11107;DHT22;5607;48.302;14.294;2024-01-16T09:10:28;2.70;99.90
11107;DHT22;5607;48.302;14.294;2024-01-16T09:13:15;2.60;99.90
11107;DHT22;5607;48.302;14.294;2024-01-16T09:16:02;2.50;99.90
11107;DHT22;5607;48.302;14.294;2024-01-16T09:18:49;2.50;99.90
11107;DHT22;5607;48.302;14.294;2024-01-16T09:21:35;2.50;99.90
11107;DHT22;5607;48.302;14.294;2024-01-16T09:24:22;2.30;99.90
11107;DHT22;5607;48.302;14.294;2024-01-16T09:27:08;2.60;99.90
11107;DHT22;5607;48.302;14.294;2024-01-16T09:29:56;2.50;99.90
11107;DHT22;5607;48.302;14.294;2024-01-16T09:32:42;2.40;99.90
11107;DHT22;5607;48.302;14.294;2024-01-16T09:35:29;2.60;99.90
11107;DHT22;5607;48.302;14.294;2024-01-16T09:38:16;2.50;99.90
11107;DHT22;5607;48.302;14.294;2024-01-16T09:41:02;2.70;99.90
11107;DHT22;5607;48.302;14.294;2024-01-16T09:43:49;2.70;99.90
11107;DHT22;5607;48.302;14.294;2024-01-16T09:46:38;2.90;99.90
11107;DHT22;5607;48.302;14.294;2024-01-16T09:49:26;3.00;99.90
11107;DHT22;5607;48.302;14.294;2024-01-16T09:52:16;2.90;99.90
11107;DHT22;5607;48.302;14.294;2024-01-16T09:55:04;2.80;99.90
11107;DHT22;5607;48.302;14.294;2024-01-16T09:57:54;2.90;99.90
11107;DHT22;5607;48.302;14.294;2024-01-16T10:00:42;3.20;99.90
11107;DHT22;5607;48.302;14.294;2024-01-16T10:03:30;3.00;99.90
11107;DHT22;5607;48.302;14.294;2024-01-16T10:06:17;2.90;99.90
11107;DHT22;5607;48.302;14.294;2024-01-16T10:09:06;2.90;99.90
11107;DHT22;5607;48.302;14.294;2024-01-16T10:11:52;2.90;99.90
11107;DHT22;5607;48.302;14.294;2024-01-16T10:14:40;2.60;99.90
11107;DHT22;5607;48.302;14.294;2024-01-16T10:17:39;2.50;99.90
11107;DHT22;5607;48.302;14.294;2024-01-16T10:20:33;2.50;99.90
11107;DHT22;5607;48.302;14.294;2024-01-16T10:23:27;2.60;99.90
11107;DHT22;5607;48.302;14.294;2024-01-16T10:26:15;2.60;99.90
11107;DHT22;5607;48.302;14.294;2024-01-16T10:29:04;2.70;99.90
11107;DHT22;5607;48.302;14.294;2024-01-16T10:31:51;2.80;99.90
11107;DHT22;5607;48.302;14.294;2024-01-16T10:34:37;2.80;99.90
11107;DHT22;5607;48.302;14.294;2024-01-16T10:37:24;2.80;99.90
11107;DHT22;5607;48.302;14.294;2024-01-16T10:40:14;3.10;99.90
11107;DHT22;5607;48.302;14.294;2024-01-16T10:43:08;2.90;99.90
11107;DHT22;5607;48.302;14.294;2024-01-16T10:45:56;2.80;99.90
11107;DHT22;5607;48.302;14.294;2024-01-16T10:49:00;2.90;99.90
11107;DHT22;5607;48.302;14.294;2024-01-16T10:51:46;3.00;99.90
11107;DHT22;5607;48.302;14.294;2024-01-16T10:54:37;3.10;99.90
11107;DHT22;5607;48.302;14.294;2024-01-16T10:57:27;3.10;99.90
11107;DHT22;5607;48.302;14.294;2024-01-16T11:00:18;3.00;99.90
11107;DHT22;5607;48.302;14.294;2024-01-16T11:03:09;3.10;99.90
11107;DHT22;5607;48.302;14.294;2024-01-16T11:06:02;2.90;99.90
11107;DHT22;5607;48.302;14.294;2024-01-16T11:08:52;2.90;99.90
11107;DHT22;5607;48.302;14.294;2024-01-16T11:11:40;3.10;99.90
11107;DHT22;5607;48.302;14.294;2024-01-16T11:14:29;2.90;99.90
11107;DHT22;5607;48.302;14.294;2024-01-16T11:17:19;2.80;99.90
11107;DHT22;5607;48.302;14.294;2024-01-16T11:20:07;2.70;99.90
11107;DHT22;5607;48.302;14.294;2024-01-16T11:22:56;2.90;99.90
11107;DHT22;5607;48.302;14.294;2024-01-16T11:25:45;3.20;99.90
11107;DHT22;5607;48.302;14.294;2024-01-16T11:28:35;3.00;99.90
11107;DHT22;5607;48.302;14.294;2024-01-16T11:31:34;2.90;99.90
11107;DHT22;5607;48.302;14.294;2024-01-16T11:37:27;3.00;99.90
11107;DHT22;5607;48.302;14.294;2024-01-16T11:40:20;3.20;99.90
11107;DHT22;5607;48.302;14.294;2024-01-16T11:46:19;3.10;99.90
11107;DHT22;5607;48.302;14.294;2024-01-16T11:49:05;3.30;99.90
11107;DHT22;5607;48.302;14.294;2024-01-16T11:51:52;3.60;99.90
11107;DHT22;5607;48.302;14.294;2024-01-16T11:54:39;3.80;99.90
11107;DHT22;5607;48.302;14.294;2024-01-16T12:00:34;4.20;99.90
11107;DHT22;5607;48.302;14.294;2024-01-16T12:03:21;4.30;99.90
11107;DHT22;5607;48.302;14.294;2024-01-16T12:06:09;4.10;99.90
11107;DHT22;5607;48.302;14.294;2024-01-16T12:12:00;4.00;99.90
11107;DHT22;5607;48.302;14.294;2024-01-16T12:14:51;4.20;99.90
11107;DHT22;5607;48.302;14.294;2024-01-16T12:18:00;4.40;99.90
11107;DHT22;5607;48.302;14.294;2024-01-16T12:20:47;4.20;99.90
11107;DHT22;5607;48.302;14.294;2024-01-16T12:23:34;3.70;99.90
11107;DHT22;5607;48.302;14.294;2024-01-16T12:26:23;3.70;99.90
11107;DHT22;5607;48.302;14.294;2024-01-16T12:29:10;3.70;99.90
11107;DHT22;5607;48.302;14.294;2024-01-16T12:32:07;4.00;99.90
11107;DHT22;5607;48.302;14.294;2024-01-16T12:34:57;4.40;99.90
11107;DHT22;5607;48.302;14.294;2024-01-16T12:37:56;4.60;99.90
11107;DHT22;5607;48.302;14.294;2024-01-16T12:40:50;4.80;99.90
11107;DHT22;5607;48.302;14.294;2024-01-16T12:43:38;5.10;99.90
11107;DHT22;5607;48.302;14.294;2024-01-16T12:46:27;5.30;99.90
11107;DHT22;5607;48.302;14.294;2024-01-16T12:49:19;5.10;99.90
11107;DHT22;5607;48.302;14.294;2024-01-16T12:52:19;4.90;99.90
11107;DHT22;5607;48.302;14.294;2024-01-16T12:55:07;4.60;99.90
11107;DHT22;5607;48.302;14.294;2024-01-16T13:01:22;4.70;99.90
11107;DHT22;5607;48.302;14.294;2024-01-16T13:04:11;4.80;99.90
11107;DHT22;5607;48.302;14.294;2024-01-16T13:07:03;5.10;99.90
11107;DHT22;5607;48.302;14.294;2024-01-16T13:09:49;5.00;99.90
11107;DHT22;5607;48.302;14.294;2024-01-16T13:12:36;5.00;99.90
11107;DHT22;5607;48.302;14.294;2024-01-16T13:15:23;5.00;99.90
11107;DHT22;5607;48.302;14.294;2024-01-16T13:18:20;4.60;99.90
11107;DHT22;5607;48.302;14.294;2024-01-16T13:21:11;4.30;99.90
11107;DHT22;5607;48.302;14.294;2024-01-16T13:23:57;4.20;99.90
11107;DHT22;5607;48.302;14.294;2024-01-16T13:26:44;4.30;99.90
11107;DHT22;5607;48.302;14.294;2024-01-16T13:29:30;4.40;99.90
11107;DHT22;5607;48.302;14.294;2024-01-16T13:32:21;4.30;99.90
11107;DHT22;5607;48.302;14.294;2024-01-16T13:35:09;4.50;99.90
11107;DHT22;5607;48.302;14.294;2024-01-16T13:37:55;4.70;99.90
11107;DHT22;5607;48.302;14.294;2024-01-16T13:40:42;4.70;99.90
11107;DHT22;5607;48.302;14.294;2024-01-16T13:43:28;4.60;99.90
11107;DHT22;5607;48.302;14.294;2024-01-16T13:46:17;4.50;99.90
11107;DHT22;5607;48.302;14.294;2024-01-16T13:49:03;4.60;99.90
11107;DHT22;5607;48.302;14.294;2024-01-16T13:51:53;4.20;99.90
11107;DHT22;5607;48.302;14.294;2024-01-16T13:54:39;4.20;99.90
11107;DHT22;5607;48.302;14.294;2024-01-16T13:57:26;4.30;99.90
11107;DHT22;5607;48.302;14.294;2024-01-16T14:00:13;4.20;99.90
11107;DHT22;5607;48.302;14.294;2024-01-16T14:03:01;4.20;99.90
11107;DHT22;5607;48.302;14.294;2024-01-16T14:05:49;4.20;99.90
11107;DHT22;5607;48.302;14.294;2024-01-16T14:08:36;4.00;99.90
11107;DHT22;5607;48.302;14.294;2024-01-16T14:11:22;4.00;99.90
11107;DHT22;5607;48.302;14.294;2024-01-16T14:14:09;3.90;99.90
11107;DHT22;5607;48.302;14.294;2024-01-16T14:16:57;3.90;99.90
11107;DHT22;5607;48.302;14.294;2024-01-16T14:19:43;4.10;99.90
11107;DHT22;5607;48.302;14.294;2024-01-16T14:22:30;3.90;99.90
11107;DHT22;5607;48.302;14.294;2024-01-16T14:25:17;3.90;99.90
11107;DHT22;5607;48.302;14.294;2024-01-16T14:28:05;4.00;99.90
11107;DHT22;5607;48.302;14.294;2024-01-16T14:30:52;4.10;99.90
11107;DHT22;5607;48.302;14.294;2024-01-16T14:33:38;4.50;99.90
11107;DHT22;5607;48.302;14.294;2024-01-16T14:36:25;4.60;99.90
11107;DHT22;5607;48.302;14.294;2024-01-16T14:39:12;4.70;99.90
11107;DHT22;5607;48.302;14.294;2024-01-16T14:42:03;4.60;99.90
11107;DHT22;5607;48.302;14.294;2024-01-16T14:44:50;4.60;99.90
11107;DHT22;5607;48.302;14.294;2024-01-16T14:47:37;4.40;99.90
11107;DHT22;5607;48.302;14.294;2024-01-16T14:50:23;4.30;99.90
11107;DHT22;5607;48.302;14.294;2024-01-16T14:53:10;4.30;99.90
11107;DHT22;5607;48.302;14.294;2024-01-16T14:55:57;4.30;99.90
11107;DHT22;5607;48.302;14.294;2024-01-16T14:58:43;4.30;99.90
11107;DHT22;5607;48.302;14.294;2024-01-16T15:01:30;4.30;99.90
11107;DHT22;5607;48.302;14.294;2024-01-16T15:04:18;4.30;99.90
11107;DHT22;5607;48.302;14.294;2024-01-16T15:07:05;4.20;99.90
11107;DHT22;5607;48.302;14.294;2024-01-16T15:09:52;4.10;99.90
11107;DHT22;5607;48.302;14.294;2024-01-16T15:12:38;4.10;99.90
11107;DHT22;5607;48.302;14.294;2024-01-16T15:15:25;4.10;99.90
11107;DHT22;5607;48.302;14.294;2024-01-16T15:18:12;4.10;99.90
11107;DHT22;5607;48.302;14.294;2024-01-16T15:20:59;4.00;99.90
11107;DHT22;5607;48.302;14.294;2024-01-16T15:23:46;4.00;99.90
11107;DHT22;5607;48.302;14.294;2024-01-16T15:26:32;3.80;99.90
11107;DHT22;5607;48.302;14.294;2024-01-16T15:29:19;3.60;99.90
11107;DHT22;5607;48.302;14.294;2024-01-16T15:32:06;3.60;99.90
11107;DHT22;5607;48.302;14.294;2024-01-16T15:34:52;3.50;99.90
11107;DHT22;5607;48.302;14.294;2024-01-16T15:37:39;3.40;99.90
11107;DHT22;5607;48.302;14.294;2024-01-16T15:40:29;3.40;99.90
11107;DHT22;5607;48.302;14.294;2024-01-16T15:43:17;3.40;99.90
11107;DHT22;5607;48.302;14.294;2024-01-16T15:46:04;3.50;99.90
11107;DHT22;5607;48.302;14.294;2024-01-16T15:48:52;3.60;99.90
11107;DHT22;5607;48.302;14.294;2024-01-16T15:51:38;3.60;99.90
11107;DHT22;5607;48.302;14.294;2024-01-16T15:54:25;3.50;99.90
11107;DHT22;5607;48.302;14.294;2024-01-16T15:57:13;3.40;99.90
11107;DHT22;5607;48.302;14.294;2024-01-16T16:00:00;3.40;99.90
11107;DHT22;5607;48.302;14.294;2024-01-16T16:02:49;3.40;99.90
11107;DHT22;5607;48.302;14.294;2024-01-16T16:05:35;3.50;99.90
11107;DHT22;5607;48.302;14.294;2024-01-16T16:08:23;3.40;99.90
11107;DHT22;5607;48.302;14.294;2024-01-16T16:11:10;3.50;99.90
11107;DHT22;5607;48.302;14.294;2024-01-16T16:13:57;3.50;99.90
11107;DHT22;5607;48.302;14.294;2024-01-16T16:16:44;3.50;99.90
11107;DHT22;5607;48.302;14.294;2024-01-16T16:19:34;3.40;99.90
11107;DHT22;5607;48.302;14.294;2024-01-16T16:22:21;3.30;99.90
11107;DHT22;5607;48.302;14.294;2024-01-16T16:25:08;3.20;99.90
11107;DHT22;5607;48.302;14.294;2024-01-16T16:27:55;3.20;99.90
11107;DHT22;5607;48.302;14.294;2024-01-16T16:30:41;3.30;99.90
11107;DHT22;5607;48.302;14.294;2024-01-16T16:33:29;3.40;99.90
11107;DHT22;5607;48.302;14.294;2024-01-16T16:36:16;3.30;99.90
11107;DHT22;5607;48.302;14.294;2024-01-16T16:39:02;3.40;99.90
11107;DHT22;5607;48.302;14.294;2024-01-16T16:41:49;3.30;99.90
11107;DHT22;5607;48.302;14.294;2024-01-16T16:44:36;3.20;99.90
11107;DHT22;5607;48.302;14.294;2024-01-16T16:47:23;3.20;99.90
11107;DHT22;5607;48.302;14.294;2024-01-16T16:50:09;3.10;99.90
11107;DHT22;5607;48.302;14.294;2024-01-16T16:52:56;3.00;99.90
11107;DHT22;5607;48.302;14.294;2024-01-16T16:55:42;2.90;99.90
11107;DHT22;5607;48.302;14.294;2024-01-16T16:58:29;2.80;99.90
11107;DHT22;5607;48.302;14.294;2024-01-16T17:01:16;2.80;99.90
11107;DHT22;5607;48.302;14.294;2024-01-16T17:04:04;2.80;99.90
11107;DHT22;5607;48.302;14.294;2024-01-16T17:06:52;2.80;99.90
11107;DHT22;5607;48.302;14.294;2024-01-16T17:09:41;2.70;99.90
11107;DHT22;5607;48.302;14.294;2024-01-16T17:12:32;2.70;99.90
11107;DHT22;5607;48.302;14.294;2024-01-16T17:15:19;2.70;99.90
11107;DHT22;5607;48.302;14.294;2024-01-16T17:18:05;2.60;99.90
11107;DHT22;5607;48.302;14.294;2024-01-16T17:20:54;2.60;99.90
11107;DHT22;5607;48.302;14.294;2024-01-16T17:23:40;2.50;99.90
11107;DHT22;5607;48.302;14.294;2024-01-16T17:26:27;2.40;99.90
11107;DHT22;5607;48.302;14.294;2024-01-16T17:29:13;2.40;99.90
11107;DHT22;5607;48.302;14.294;2024-01-16T17:32:01;2.40;99.90
11107;DHT22;5607;48.302;14.294;2024-01-16T17:34:49;2.60;99.90
11107;DHT22;5607;48.302;14.294;2024-01-16T17:37:36;2.70;99.90
11107;DHT22;5607;48.302;14.294;2024-01-16T17:40:23;2.60;99.90
11107;DHT22;5607;48.302;14.294;2024-01-16T17:43:10;2.50;99.90
11107;DHT22;5607;48.302;14.294;2024-01-16T17:45:56;2.50;99.90
11107;DHT22;5607;48.302;14.294;2024-01-16T17:48:44;2.50;99.90
11107;DHT22;5607;48.302;14.294;2024-01-16T17:51:31;2.40;99.90
11107;DHT22;5607;48.302;14.294;2024-01-16T17:54:18;2.30;99.90
11107;DHT22;5607;48.302;14.294;2024-01-16T17:57:04;2.20;99.90
11107;DHT22;5607;48.302;14.294;2024-01-16T17:59:51;2.20;99.90
11107;DHT22;5607;48.302;14.294;2024-01-16T18:02:38;2.10;99.90
11107;DHT22;5607;48.302;14.294;2024-01-16T18:05:25;2.00;99.90
11107;DHT22;5607;48.302;14.294;2024-01-16T18:08:15;1.90;99.90
11107;DHT22;5607;48.302;14.294;2024-01-16T18:11:03;1.90;99.90
11107;DHT22;5607;48.302;14.294;2024-01-16T18:13:50;2.00;99.90
11107;DHT22;5607;48.302;14.294;2024-01-16T18:16:38;2.00;99.90
11107;DHT22;5607;48.302;14.294;2024-01-16T18:19:25;2.00;99.90